createdAt,value
2019-01-28T00:00:54.325Z,3.10
2019-01-28T00:03:22.391Z,3.83
2019-01-28T00:05:50.320Z,4.13
2019-01-28T00:08:19.937Z,3.60
2019-01-28T00:10:47.833Z,3.83
2019-01-28T00:13:15.638Z,3.47
2019-01-28T00:15:43.776Z,3.87
2019-01-28T00:18:11.715Z,3.63
2019-01-28T00:20:39.551Z,4.10
2019-01-28T00:23:07.467Z,2.80
2019-01-28T00:25:35.579Z,2.43
2019-01-28T00:28:03.512Z,3.20
2019-01-28T00:30:31.455Z,3.83
2019-01-28T00:33:03.226Z,3.00
2019-01-28T00:35:31.070Z,3.80
2019-01-28T00:37:59.143Z,3.27
2019-01-28T00:40:27.138Z,4.27
2019-01-28T00:42:56.671Z,4.20
2019-01-28T00:45:25.848Z,4.17
2019-01-28T00:47:53.786Z,4.83
2019-01-28T00:50:21.678Z,4.63
2019-01-28T00:52:49.547Z,4.30
2019-01-28T00:55:19.703Z,3.33
2019-01-28T00:57:47.635Z,3.13
2019-01-28T01:00:16.984Z,3.70
2019-01-28T01:02:45.149Z,2.77
2019-01-28T01:05:13.500Z,2.23
2019-01-28T01:07:41.682Z,2.40
2019-01-28T01:10:11.199Z,2.53
2019-01-28T01:12:39.131Z,2.93
2019-01-28T01:15:08.943Z,3.20
2019-01-28T01:17:36.855Z,3.20
2019-01-28T01:20:05.388Z,3.20
2019-01-28T01:22:33.247Z,3.13
2019-01-28T01:25:02.561Z,3.53
2019-01-28T01:27:30.530Z,3.27
2019-01-28T01:29:58.464Z,3.17
2019-01-28T01:32:26.284Z,2.93
2019-01-28T01:34:54.232Z,3.33
2019-01-28T01:37:22.163Z,3.10
2019-01-28T01:39:49.980Z,4.10
2019-01-28T01:42:17.837Z,3.07
2019-01-28T01:44:45.700Z,3.63
2019-01-28T01:47:13.598Z,3.70
2019-01-28T01:49:41.478Z,2.77
2019-01-28T01:52:10.319Z,3.00
2019-01-28T01:54:38.164Z,3.30
2019-01-28T01:57:06.016Z,3.00
2019-01-28T01:59:33.932Z,2.80
2019-01-28T02:02:02.055Z,3.37
2019-01-28T02:04:29.877Z,3.50
2019-01-28T02:06:57.777Z,2.97
2019-01-28T02:09:25.895Z,3.23
2019-01-28T02:11:55.046Z,2.87
2019-01-28T02:14:22.906Z,3.20
2019-01-28T02:16:50.747Z,2.87
2019-01-28T02:19:18.570Z,3.10
2019-01-28T02:21:46.560Z,2.87
2019-01-28T02:24:14.482Z,3.70
2019-01-28T02:26:42.494Z,3.63
2019-01-28T02:29:10.372Z,3.33
2019-01-28T02:31:38.184Z,3.13
2019-01-28T02:34:06.050Z,2.77
2019-01-28T02:36:33.931Z,3.23
2019-01-28T02:39:02.215Z,3.77
2019-01-28T02:41:30.100Z,3.87
2019-01-28T02:43:58.009Z,4.33
2019-01-28T02:46:27.491Z,4.07
2019-01-28T02:48:55.310Z,3.73
2019-01-28T02:51:23.200Z,3.40
2019-01-28T02:53:51.159Z,3.33
2019-01-28T02:56:19.043Z,3.57
2019-01-28T02:58:46.977Z,3.60
2019-01-28T03:01:14.816Z,4.27
2019-01-28T03:03:42.698Z,4.03
2019-01-28T03:06:10.948Z,3.73
2019-01-28T03:08:38.854Z,2.93
2019-01-28T03:11:06.950Z,2.67
2019-01-28T03:13:34.866Z,2.83
2019-01-28T03:16:02.751Z,3.23
2019-01-28T03:18:31.021Z,3.43
2019-01-28T03:20:58.906Z,3.23
2019-01-28T03:23:28.055Z,3.50
2019-01-28T03:25:55.849Z,3.40
2019-01-28T03:28:24.386Z,3.00
2019-01-28T03:30:52.222Z,3.47
2019-01-28T03:33:20.025Z,2.67
2019-01-28T03:35:47.939Z,2.83
2019-01-28T03:38:15.786Z,3.57
2019-01-28T03:40:43.643Z,2.67
2019-01-28T03:43:11.508Z,2.60
2019-01-28T03:45:39.532Z,2.20
2019-01-28T03:48:07.373Z,3.13
2019-01-28T03:50:35.212Z,2.53
2019-01-28T03:53:03.249Z,3.27
2019-01-28T03:55:31.182Z,3.50
2019-01-28T03:57:59.031Z,3.70
2019-01-28T04:00:26.969Z,3.17
2019-01-28T04:02:54.793Z,3.53
2019-01-28T04:05:22.656Z,2.87
2019-01-28T04:07:50.482Z,3.17
2019-01-28T04:10:19.414Z,3.50
2019-01-28T04:12:47.314Z,2.97
2019-01-28T04:15:16.299Z,3.50
2019-01-28T04:17:44.110Z,3.57
2019-01-28T04:20:12.570Z,3.23
2019-01-28T04:22:40.420Z,2.80
2019-01-28T04:25:08.583Z,2.90
2019-01-28T04:27:36.430Z,2.77
2019-01-28T04:30:05.356Z,3.43
2019-01-28T04:32:33.255Z,3.00
2019-01-28T04:35:01.101Z,3.40
2019-01-28T04:37:28.925Z,2.27
2019-01-28T04:39:56.821Z,3.17
2019-01-28T04:42:24.691Z,3.43
2019-01-28T04:44:52.589Z,3.53
2019-01-28T04:47:20.425Z,2.87
2019-01-28T04:49:48.372Z,2.73
2019-01-28T04:52:16.184Z,2.60
2019-01-28T04:54:43.996Z,3.33
2019-01-28T04:57:11.845Z,3.40
2019-01-28T04:59:39.831Z,2.80
2019-01-28T05:02:07.632Z,3.07
2019-01-28T05:04:36.830Z,2.97
2019-01-28T05:07:04.737Z,3.07
2019-01-28T05:09:32.634Z,2.80
2019-01-28T05:12:00.604Z,3.33
2019-01-28T05:14:28.438Z,3.07
2019-01-28T05:16:56.231Z,3.20
2019-01-28T05:19:24.148Z,3.47
2019-01-28T05:21:51.961Z,3.60
2019-01-28T05:24:19.757Z,3.30
2019-01-28T05:26:47.787Z,3.50
2019-01-28T05:29:15.639Z,3.13
2019-01-28T05:31:43.444Z,2.97
2019-01-28T05:34:11.330Z,3.07
2019-01-28T05:36:39.125Z,2.87
2019-01-28T05:39:08.559Z,3.23
2019-01-28T05:41:36.508Z,3.40
2019-01-28T05:44:04.870Z,3.23
2019-01-28T05:46:32.907Z,3.07
2019-01-28T05:49:00.771Z,3.57
2019-01-28T05:51:28.571Z,2.73
2019-01-28T05:53:56.611Z,2.73
2019-01-28T05:56:24.565Z,4.20
2019-01-28T05:58:52.385Z,3.23
2019-01-28T06:01:20.731Z,3.20
2019-01-28T06:03:48.704Z,3.10
2019-01-28T06:06:16.512Z,4.27
2019-01-28T06:08:44.529Z,3.10
2019-01-28T06:11:12.738Z,2.57
2019-01-28T06:13:40.931Z,2.70
2019-01-28T06:16:08.830Z,3.53
2019-01-28T06:18:36.868Z,2.50
2019-01-28T06:21:04.973Z,2.33
2019-01-28T06:23:32.862Z,2.43
2019-01-28T06:26:00.793Z,2.80
2019-01-28T06:28:28.623Z,3.20
2019-01-28T06:30:56.467Z,3.40
2019-01-28T06:33:24.293Z,2.90
2019-01-28T06:35:53.295Z,2.47
2019-01-28T06:38:21.078Z,2.20
2019-01-28T06:40:48.963Z,2.70
2019-01-28T06:43:18.841Z,2.63
2019-01-28T06:45:46.831Z,3.13
2019-01-28T06:48:14.936Z,3.20
2019-01-28T06:50:42.851Z,3.57
2019-01-28T06:53:11.031Z,3.33
2019-01-28T06:55:38.917Z,3.30
2019-01-28T06:58:06.867Z,3.03
2019-01-28T07:00:35.471Z,2.60
2019-01-28T07:03:03.550Z,3.40
2019-01-28T07:05:31.462Z,3.60
2019-01-28T07:07:59.289Z,3.10
2019-01-28T07:10:27.324Z,3.93
2019-01-28T07:12:56.912Z,3.40
2019-01-28T07:15:24.831Z,3.50
2019-01-28T07:17:54.962Z,2.87
2019-01-28T07:20:24.574Z,3.17
2019-01-28T07:22:52.539Z,2.97
2019-01-28T07:25:22.957Z,2.63
2019-01-28T07:27:52.523Z,2.50
2019-01-28T07:30:23.208Z,2.13
2019-01-28T07:32:51.214Z,2.83
2019-01-28T07:35:19.082Z,3.13
2019-01-28T07:37:47.153Z,3.00
2019-01-28T07:40:15.531Z,3.57
2019-01-28T07:42:43.399Z,3.90
2019-01-28T07:45:13.159Z,3.40
2019-01-28T07:47:41.119Z,2.53
2019-01-28T07:50:09.415Z,3.70
2019-01-28T07:52:37.539Z,2.87
2019-01-28T07:55:05.624Z,3.17
2019-01-28T07:57:33.421Z,3.57
2019-01-28T08:00:01.267Z,4.60
2019-01-28T08:02:29.183Z,4.07
2019-01-28T08:04:57.029Z,3.60
2019-01-28T08:07:24.983Z,2.90
2019-01-28T08:09:52.843Z,3.40
2019-01-28T08:12:20.708Z,4.00
2019-01-28T08:14:48.540Z,3.70
2019-01-28T08:17:16.408Z,3.83
2019-01-28T08:19:44.264Z,3.03
2019-01-28T08:22:12.517Z,3.20
2019-01-28T08:24:40.662Z,3.07
2019-01-28T08:27:08.486Z,3.40
2019-01-28T08:29:36.347Z,3.13
2019-01-28T08:32:04.343Z,2.97
2019-01-28T08:34:32.203Z,3.23
2019-01-28T08:37:00.068Z,3.20
2019-01-28T08:39:28.658Z,3.20
2019-01-28T08:41:56.520Z,3.23
2019-01-28T08:44:24.359Z,3.30
2019-01-28T08:46:52.202Z,2.47
2019-01-28T08:49:20.109Z,3.13
2019-01-28T08:51:47.924Z,3.37
2019-01-28T08:54:15.933Z,2.30
2019-01-28T08:56:43.819Z,3.60
2019-01-28T08:59:11.653Z,3.33
2019-01-28T09:01:39.592Z,3.03
2019-01-28T09:04:10.150Z,3.87
2019-01-28T09:06:38.017Z,3.07
2019-01-28T09:09:08.016Z,2.90
2019-01-28T09:11:35.824Z,4.20
2019-01-28T09:14:03.676Z,3.60
2019-01-28T09:16:31.549Z,3.13
2019-01-28T09:18:59.601Z,3.67
2019-01-28T09:21:28.422Z,3.27
2019-01-28T09:23:56.289Z,3.20
2019-01-28T09:26:24.189Z,3.80
2019-01-28T09:28:53.457Z,3.07
2019-01-28T09:31:22.454Z,3.60
2019-01-28T09:33:50.673Z,3.47
2019-01-28T09:36:18.540Z,3.50
2019-01-28T09:38:46.379Z,4.53
2019-01-28T09:41:14.203Z,3.87
2019-01-28T09:43:42.216Z,3.87
2019-01-28T09:46:10.023Z,2.90
2019-01-28T09:48:37.961Z,3.87
2019-01-28T09:51:05.817Z,2.97
2019-01-28T09:53:33.646Z,3.63
2019-01-28T09:56:01.763Z,3.07
2019-01-28T09:58:29.677Z,3.23
2019-01-28T10:00:57.576Z,3.30
2019-01-28T10:03:25.472Z,2.80
2019-01-28T10:05:53.739Z,2.97
2019-01-28T10:08:21.625Z,2.67
2019-01-28T10:10:50.538Z,3.00
2019-01-28T10:13:18.515Z,2.80
2019-01-28T10:15:46.433Z,2.63
2019-01-28T10:18:14.261Z,2.40
2019-01-28T10:20:44.754Z,2.87
2019-01-28T10:23:12.632Z,2.70
2019-01-28T10:25:40.654Z,3.27
2019-01-28T10:28:08.677Z,2.63
2019-01-28T10:30:39.598Z,2.87
2019-01-28T10:33:07.948Z,3.00
2019-01-28T10:35:36.182Z,2.97
2019-01-28T10:38:04.280Z,3.00
2019-01-28T10:40:33.867Z,2.97
2019-01-28T10:43:01.748Z,3.37
2019-01-28T10:45:29.679Z,2.63
2019-01-28T10:48:00.628Z,3.80
2019-01-28T10:50:27.450Z,3.00
2019-01-28T10:52:55.384Z,2.87
2019-01-28T10:55:23.313Z,2.60
2019-01-28T10:57:51.188Z,2.13
2019-01-28T11:00:29.375Z,2.80
2019-01-28T11:02:57.357Z,2.57
2019-01-28T11:05:25.266Z,2.40
2019-01-28T11:07:53.109Z,2.57
2019-01-28T11:10:21.164Z,2.50
2019-01-28T11:12:49.172Z,2.50
2019-01-28T11:15:18.317Z,2.70
2019-01-28T11:17:46.216Z,2.83
2019-01-28T11:20:14.148Z,3.03
2019-01-28T11:22:42.082Z,2.70
2019-01-28T11:25:11.714Z,2.80
2019-01-28T11:27:40.898Z,2.80
2019-01-28T11:30:12.078Z,2.40
2019-01-28T11:32:40.910Z,2.70
2019-01-28T11:35:08.846Z,2.23
2019-01-28T11:37:37.176Z,2.23
2019-01-28T11:40:06.252Z,2.20
2019-01-28T11:42:42.349Z,2.50
2019-01-28T11:45:12.944Z,2.30
2019-01-28T11:47:40.857Z,2.57
2019-01-28T11:50:09.381Z,2.27
2019-01-28T11:52:38.486Z,2.17
2019-01-28T11:55:06.394Z,2.20
2019-01-28T11:57:35.711Z,2.40
2019-01-28T12:00:03.647Z,2.47
2019-01-28T12:02:34.402Z,2.27
2019-01-28T12:05:15.680Z,2.30
2019-01-28T12:07:46.318Z,2.37
2019-01-28T12:10:16.487Z,2.20
2019-01-28T12:12:44.128Z,2.67
2019-01-28T12:15:12.824Z,2.27
2019-01-28T12:17:40.999Z,2.37
2019-01-28T12:20:09.429Z,2.43
2019-01-28T12:22:37.347Z,2.40
2019-01-28T12:25:05.416Z,2.37
2019-01-28T12:27:33.743Z,2.30
2019-01-28T12:30:01.863Z,2.77
2019-01-28T12:32:30.027Z,2.03
2019-01-28T12:34:58.210Z,1.83
2019-01-28T12:37:26.135Z,2.20
2019-01-28T12:39:54.009Z,2.40
2019-01-28T12:42:21.994Z,2.60
2019-01-28T12:44:49.827Z,2.17
2019-01-28T12:47:17.700Z,2.27
2019-01-28T12:49:45.744Z,2.13
2019-01-28T12:52:13.676Z,1.60
2019-01-28T12:54:41.592Z,1.57
2019-01-28T12:57:09.833Z,2.10
2019-01-28T12:59:38.720Z,2.10
2019-01-28T13:02:07.099Z,1.43
2019-01-28T13:04:42.074Z,1.50
2019-01-28T13:07:05.230Z,1.60
2019-01-28T13:09:33.774Z,1.30
2019-01-28T13:12:02.303Z,1.10
2019-01-28T13:14:30.490Z,1.30
2019-01-28T13:16:59.003Z,1.30
2019-01-28T13:19:30.326Z,1.63
2019-01-28T13:21:56.986Z,1.53
2019-01-28T13:24:28.329Z,1.50
2019-01-28T13:26:56.212Z,1.50
2019-01-28T13:29:24.198Z,0.97
2019-01-28T13:31:59.351Z,1.10
2019-01-28T13:34:27.320Z,1.43
2019-01-28T13:36:55.425Z,1.70
2019-01-28T13:39:24.148Z,1.50
2019-01-28T13:41:52.564Z,1.60
2019-01-28T13:44:21.880Z,1.70
2019-01-28T13:46:50.240Z,1.83
2019-01-28T13:49:18.909Z,2.13
2019-01-28T13:51:50.617Z,2.00
2019-01-28T13:54:18.675Z,2.50
2019-01-28T13:56:46.584Z,1.73
2019-01-28T13:59:16.461Z,2.10
2019-01-28T14:01:44.598Z,2.27
2019-01-28T14:04:12.516Z,1.90
2019-01-28T14:06:40.460Z,2.10
2019-01-28T14:09:08.684Z,2.40
2019-01-28T14:11:36.610Z,2.43
2019-01-28T14:14:04.790Z,2.57
2019-01-28T14:16:32.783Z,2.77
2019-01-28T14:19:02.272Z,2.73
2019-01-28T14:21:30.318Z,2.90
2019-01-28T14:23:58.201Z,2.87
2019-01-28T14:26:26.043Z,2.60
2019-01-28T14:28:54.045Z,2.50
2019-01-28T14:31:22.057Z,2.73
2019-01-28T14:33:49.993Z,3.40
2019-01-28T14:36:17.891Z,2.60
2019-01-28T14:38:45.840Z,2.23
2019-01-28T14:41:13.790Z,2.23
2019-01-28T14:43:41.674Z,2.33
2019-01-28T14:46:09.843Z,2.63
2019-01-28T14:48:37.747Z,3.00
2019-01-28T14:51:05.719Z,2.80
2019-01-28T14:53:33.690Z,2.60
2019-01-28T14:56:01.906Z,2.43
2019-01-28T14:58:29.826Z,2.80
2019-01-28T15:00:57.801Z,3.27
2019-01-28T15:03:25.807Z,3.23
2019-01-28T15:05:53.866Z,2.50
2019-01-28T15:08:21.761Z,3.40
2019-01-28T15:10:49.688Z,2.73
2019-01-28T15:13:17.697Z,2.90
2019-01-28T15:15:46.106Z,2.90
2019-01-28T15:18:14.912Z,2.83
2019-01-28T15:20:42.757Z,3.20
2019-01-28T15:23:10.673Z,2.40
2019-01-28T15:25:38.557Z,2.70
2019-01-28T15:28:06.494Z,2.50
2019-01-28T15:30:34.502Z,3.10
2019-01-28T15:33:02.438Z,2.23
2019-01-28T15:35:30.373Z,2.70
2019-01-28T15:38:01.244Z,2.70
2019-01-28T15:40:33.088Z,2.43
2019-01-28T15:43:01.056Z,2.23
2019-01-28T15:45:30.086Z,2.33
2019-01-28T15:47:58.173Z,2.40
2019-01-28T15:50:26.223Z,2.37
2019-01-28T15:52:54.291Z,2.47
2019-01-28T15:55:23.605Z,2.20
2019-01-28T15:57:51.925Z,2.00
2019-01-28T16:00:21.335Z,2.43
2019-01-28T16:02:49.353Z,1.80
2019-01-28T16:05:17.518Z,1.87
2019-01-28T16:07:45.482Z,2.37
2019-01-28T16:10:14.326Z,2.40
2019-01-28T16:12:42.356Z,2.13
2019-01-28T16:15:12.787Z,2.10
2019-01-28T16:17:40.608Z,2.50
2019-01-28T16:20:09.484Z,2.60
2019-01-28T16:22:37.530Z,2.53
2019-01-28T16:25:09.772Z,2.83
2019-01-28T16:27:38.021Z,2.70
2019-01-28T16:30:09.998Z,2.90
2019-01-28T16:32:37.978Z,3.23
2019-01-28T16:35:05.894Z,3.97
2019-01-28T16:37:33.868Z,3.43
2019-01-28T16:40:02.324Z,3.43
2019-01-28T16:42:30.268Z,3.23
2019-01-28T16:44:58.272Z,2.90
2019-01-28T16:47:26.085Z,3.13
2019-01-28T16:49:54.738Z,2.90
2019-01-28T16:52:22.587Z,3.50
2019-01-28T16:54:50.480Z,2.80
2019-01-28T16:57:18.280Z,3.07
2019-01-28T16:59:46.111Z,3.43
2019-01-28T17:02:14.070Z,3.23
2019-01-28T17:04:41.864Z,2.57
2019-01-28T17:07:10.042Z,2.77
2019-01-28T17:09:37.859Z,3.47
2019-01-28T17:12:06.123Z,2.23
2019-01-28T17:14:34.266Z,2.53
2019-01-28T17:17:02.304Z,2.33
2019-01-28T17:19:30.211Z,2.30
2019-01-28T17:21:58.233Z,2.03
2019-01-28T17:24:26.715Z,2.60
2019-01-28T17:26:55.134Z,2.80
2019-01-28T17:29:23.407Z,2.00
2019-01-28T17:31:51.604Z,2.40
2019-01-28T17:34:19.557Z,2.33
2019-01-28T17:36:48.203Z,2.30
2019-01-28T17:39:16.367Z,2.30
2019-01-28T17:41:44.184Z,2.53
2019-01-28T17:44:12.391Z,2.50
2019-01-28T17:46:40.239Z,2.27
2019-01-28T17:49:08.171Z,2.40
2019-01-28T17:51:36.291Z,2.27
2019-01-28T17:54:04.217Z,2.60
2019-01-28T17:56:33.156Z,2.20
2019-01-28T17:59:00.999Z,2.20
2019-01-28T18:01:29.029Z,2.40
2019-01-28T18:03:56.908Z,2.60
2019-01-28T18:06:24.842Z,2.73
2019-01-28T18:08:52.729Z,2.83
2019-01-28T18:11:20.646Z,2.63
2019-01-28T18:13:48.545Z,2.30
2019-01-28T18:16:16.401Z,3.20
2019-01-28T18:18:44.301Z,3.00
2019-01-28T18:21:12.221Z,2.90
2019-01-28T18:23:53.047Z,3.17
2019-01-28T18:26:21.015Z,2.47
2019-01-28T18:28:48.910Z,2.67
2019-01-28T18:31:16.828Z,2.47
2019-01-28T18:33:44.719Z,2.57
2019-01-28T18:36:12.584Z,2.27
2019-01-28T18:38:40.614Z,2.27
2019-01-28T18:41:09.215Z,2.60
2019-01-28T18:43:37.108Z,2.70
2019-01-28T18:46:05.139Z,2.50
2019-01-28T18:48:32.981Z,2.87
2019-01-28T18:51:00.861Z,2.27
2019-01-28T18:53:28.744Z,2.40
2019-01-28T18:55:56.774Z,2.53
2019-01-28T18:58:24.700Z,2.40
2019-01-28T19:00:52.578Z,2.27
2019-01-28T19:03:20.819Z,2.23
2019-01-28T19:06:04.690Z,2.37
2019-01-28T19:08:42.246Z,3.13
2019-01-28T19:11:17.591Z,2.80
2019-01-28T19:14:03.310Z,3.30
2019-01-28T19:16:41.804Z,2.67
2019-01-28T19:19:17.282Z,2.77
2019-01-28T19:21:48.883Z,3.07
2019-01-28T19:24:16.728Z,2.60
2019-01-28T19:26:44.719Z,2.70
2019-01-28T19:29:12.816Z,3.70
2019-01-28T19:31:40.611Z,2.83
2019-01-28T19:34:08.466Z,2.40
2019-01-28T19:36:36.310Z,2.50
2019-01-28T19:39:06.226Z,3.03
2019-01-28T19:41:34.120Z,3.60
2019-01-28T19:44:02.174Z,3.63
2019-01-28T19:46:29.965Z,3.10
2019-01-28T19:48:58.039Z,2.83
2019-01-28T19:51:26.004Z,2.70
2019-01-28T19:53:53.898Z,3.20
2019-01-28T19:56:21.836Z,2.80
2019-01-28T19:58:49.727Z,2.70
2019-01-28T20:01:17.665Z,3.40
2019-01-28T20:03:45.584Z,3.30
2019-01-28T20:06:13.483Z,3.03
2019-01-28T20:08:41.398Z,3.27
2019-01-28T20:11:09.274Z,2.90
2019-01-28T20:13:37.189Z,3.00
2019-01-28T20:16:05.043Z,4.27
2019-01-28T20:18:33.041Z,3.40
2019-01-28T20:21:00.947Z,3.20
2019-01-28T20:23:28.854Z,3.00
2019-01-28T20:25:56.723Z,3.43
2019-01-28T20:28:26.277Z,3.57
2019-01-28T20:30:54.227Z,4.27
2019-01-28T20:33:22.230Z,3.23
2019-01-28T20:35:50.465Z,2.57
2019-01-28T20:38:18.296Z,2.60
2019-01-28T20:40:46.178Z,2.37
2019-01-28T20:43:14.145Z,2.57
2019-01-28T20:45:45.244Z,2.30
2019-01-28T20:48:11.829Z,2.97
2019-01-28T20:50:39.964Z,2.10
2019-01-28T20:53:07.793Z,2.23
2019-01-28T20:55:35.743Z,2.80
2019-01-28T20:58:03.798Z,2.90
2019-01-28T21:00:31.755Z,2.90
2019-01-28T21:02:59.883Z,2.57
2019-01-28T21:05:27.848Z,3.10
2019-01-28T21:07:55.839Z,2.67
2019-01-28T21:10:23.767Z,2.57
2019-01-28T21:12:51.647Z,2.53
2019-01-28T21:15:19.751Z,3.17
2019-01-28T21:17:47.780Z,2.97
2019-01-28T21:20:16.288Z,2.50
2019-01-28T21:22:44.229Z,3.17
2019-01-28T21:25:16.283Z,2.97
2019-01-28T21:27:44.640Z,2.33
2019-01-28T21:30:15.509Z,2.90
2019-01-28T21:32:45.906Z,3.07
2019-01-28T21:35:14.260Z,3.17
2019-01-28T21:37:50.665Z,2.70
2019-01-28T21:40:22.321Z,2.90
2019-01-28T21:42:51.108Z,2.07
2019-01-28T21:45:20.277Z,2.90
2019-01-28T21:47:54.604Z,2.03
2019-01-28T21:50:23.572Z,1.90
2019-01-28T21:53:01.035Z,2.83
2019-01-28T21:55:29.187Z,2.87
2019-01-28T21:58:07.694Z,2.20
2019-01-28T22:00:35.774Z,2.77
2019-01-28T22:03:03.791Z,2.23
2019-01-28T22:05:32.488Z,2.63
2019-01-28T22:08:00.460Z,2.20
2019-01-28T22:10:28.280Z,2.43
2019-01-28T22:12:56.199Z,2.30
2019-01-28T22:15:24.293Z,2.10
2019-01-28T22:17:52.193Z,2.57
2019-01-28T22:20:20.050Z,2.50
2019-01-28T22:22:48.294Z,2.90
2019-01-28T22:25:16.150Z,2.93
2019-01-28T22:27:44.050Z,2.63
2019-01-28T22:30:20.849Z,2.57
2019-01-28T22:32:48.808Z,3.03
2019-01-28T22:35:16.656Z,2.90
2019-01-28T22:37:44.488Z,2.50
2019-01-28T22:40:12.728Z,3.40
2019-01-28T22:42:40.557Z,3.50
2019-01-28T22:45:10.403Z,3.20
2019-01-28T22:47:38.327Z,2.50
2019-01-28T22:50:09.096Z,2.97
2019-01-28T22:52:36.926Z,3.17
2019-01-28T22:55:05.939Z,3.47
2019-01-28T22:57:34.181Z,2.87
2019-01-28T23:00:02.022Z,3.37
2019-01-28T23:02:29.934Z,3.20
2019-01-28T23:04:57.837Z,3.60
2019-01-28T23:07:25.679Z,3.20
2019-01-28T23:09:53.508Z,3.50
2019-01-28T23:12:21.328Z,3.83
2019-01-28T23:14:49.138Z,3.47
2019-01-28T23:17:17.196Z,3.87
2019-01-28T23:19:45.054Z,3.30
2019-01-28T23:22:16.582Z,3.30
2019-01-28T23:24:42.489Z,3.00
2019-01-28T23:27:10.395Z,3.40
2019-01-28T23:29:41.046Z,3.23
2019-01-28T23:32:09.151Z,2.80
2019-01-28T23:34:36.972Z,3.00
2019-01-28T23:37:04.751Z,2.67
2019-01-28T23:39:32.651Z,2.83
2019-01-28T23:42:00.726Z,3.23
2019-01-28T23:44:28.553Z,3.10
2019-01-28T23:46:56.400Z,2.70
2019-01-28T23:49:24.339Z,3.37
2019-01-28T23:51:52.173Z,3.53
2019-01-28T23:54:20.043Z,3.03
2019-01-28T23:56:48.171Z,2.77
2019-01-28T23:59:16.053Z,2.83
